This is the latest recevied weather packets stored in our database for station/object IW1RID-3. If no packets are shown the sender has not sent any weather packets the latest 10 day(s).
| Time | Temp. | Humidity | Pressure | Rain* | Wind** | Luminosity | Snow |
|---|---|---|---|---|---|---|---|
| 1777606130 | 10.56° C | 72% | 1081.7 hPa | - | - | - | - |
| 1777604924 | 11.11° C | 69% | 1081.6 hPa | - | - | - | - |
| 1777603720 | 11.11° C | 71% | 1081.4 hPa | - | - | - | - |
| 1777602514 | 11.11° C | 72% | 1081.2 hPa | - | - | - | - |
| 1777601309 | 11.11° C | 70% | 1081.1 hPa | - | - | - | - |
| 1777600104 | 11.11° C | 70% | 1080.9 hPa | - | - | - | - |
| 1777598897 | 12.78° C | 63% | 1080.9 hPa | - | - | - | - |
| 1777597693 | 11.67° C | 68% | 1080.8 hPa | - | - | - | - |
| 1777596487 | 12.22° C | 68% | 1080.8 hPa | - | - | - | - |
| 1777595283 | 12.22° C | 68% | 1080.7 hPa | - | - | - | - |
| 1777592869 | 12.78° C | 65% | 1080.4 hPa | - | - | - | - |
| 1777591664 | 12.78° C | 64% | 1080.3 hPa | - | - | - | - |
| 1777590457 | 13.89° C | 62% | 1080.1 hPa | - | - | - | - |
| 1777588044 | 13.89° C | 62% | 1079.8 hPa | - | - | - | - |
| 1777586838 | 13.89° C | 61% | 1079.6 hPa | - | - | - | - |
| 1777585632 | 14.44° C | 60% | 1079.5 hPa | - | - | - | - |
| 1777584426 | 14.44° C | 60% | 1079.5 hPa | - | - | - | - |
| 1777583221 | 15° C | 58% | 1079.6 hPa | - | - | - | - |
| 1777582016 | 16.67° C | 52% | 1079.3 hPa | - | - | - | - |
| 1777580810 | 15.56° C | 58% | 1079.4 hPa | - | - | - | - |
| 1777579606 | 16.11° C | 57% | 1079.1 hPa | - | - | - | - |
| 1777578400 | 16.67° C | 56% | 1079 hPa | - | - | - | - |
| 1777577195 | 17.22° C | 54% | 1078.9 hPa | - | - | - | - |
| 1777575989 | 18.33° C | 49% | 1078.4 hPa | - | - | - | - |
| 1777574784 | 19.44° C | 44% | 1078 hPa | - | - | - | - |
* Rain since midnight (hover to see other rain measurements)
** Current wind speed in m/s (hover to see current wind gust speed)